sim
Sign-in with your pilot id or email,
or register
Callsign
Passwort

Schedule Details

Flight Number: EWG1975 (2)
Departure: Hamburg Airport (EDDH) at 11:55
Arrival: Munich Airport (EDDM) at 13:20
Route: Eurowings Passenger Schedule. Enter filed route here before submitting Pirep.

Weather Information
Getting current METAR information for EDDH 190820Z 07006KT CAVOK 14/08 Q1025 NOSIG
Getting current METAR information for EDDM 190820Z 09007KT CAVOK 14/08 Q1020 NOSIG

Schedule Frequency

Route Map